createdAt,value
2023-02-15T00:00:25.717Z,-7.37
2023-02-15T00:02:28.372Z,-7.35
2023-02-15T00:04:47.498Z,-7.34
2023-02-15T00:06:50.878Z,-7.33
2023-02-15T00:08:54.460Z,-7.35
2023-02-15T00:11:11.127Z,-7.34
2023-02-15T00:13:13.705Z,-7.33
2023-02-15T00:15:16.401Z,-7.39
2023-02-15T00:17:19.010Z,-7.33
2023-02-15T00:19:22.713Z,-7.35
2023-02-15T00:21:25.307Z,-7.39
2023-02-15T00:23:28.060Z,-7.36
2023-02-15T00:25:30.662Z,-7.36
2023-02-15T00:27:34.868Z,-7.34
2023-02-15T00:29:37.579Z,-7.37
2023-02-15T00:31:40.433Z,-7.37
2023-02-15T00:33:43.128Z,-7.46
2023-02-15T00:35:45.855Z,-7.50
2023-02-15T00:37:48.846Z,-7.56
2023-02-15T00:39:51.438Z,-7.59
2023-02-15T00:41:53.985Z,-7.62
2023-02-15T00:43:56.613Z,-7.66
2023-02-15T00:45:59.943Z,-7.72
2023-02-15T00:48:02.704Z,-7.80
2023-02-15T00:50:06.628Z,-7.92
2023-02-15T00:52:09.365Z,-8.00
2023-02-15T00:54:12.044Z,-8.09
2023-02-15T00:56:14.741Z,-8.16
2023-02-15T00:58:17.569Z,-8.23
2023-02-15T01:00:20.172Z,-8.32
2023-02-15T01:02:22.828Z,-8.39
2023-02-15T01:04:25.456Z,-8.44
2023-02-15T01:06:28.099Z,-8.45
2023-02-15T01:08:31.182Z,-8.46
2023-02-15T01:10:35.433Z,-8.45
2023-02-15T01:12:38.308Z,-8.41
2023-02-15T01:14:40.946Z,-8.42
2023-02-15T01:16:43.525Z,-8.47
2023-02-15T01:18:46.640Z,-8.42
2023-02-15T01:20:49.547Z,-8.44
2023-02-15T01:22:53.027Z,-8.40
2023-02-15T01:24:55.599Z,-8.36
2023-02-15T01:26:58.300Z,-8.33
2023-02-15T01:29:00.908Z,-8.32
2023-02-15T01:31:11.836Z,-8.32
2023-02-15T01:33:19.112Z,-8.31
2023-02-15T01:35:21.912Z,-8.30
2023-02-15T01:37:24.516Z,-8.26
2023-02-15T01:39:27.239Z,-8.26
2023-02-15T01:41:29.986Z,-8.24
2023-02-15T01:43:51.247Z,-8.22
2023-02-15T01:45:53.945Z,-8.19
2023-02-15T01:48:22.126Z,-8.19
2023-02-15T01:50:32.178Z,-8.15
2023-02-15T01:52:38.348Z,-8.11
2023-02-15T01:54:44.138Z,-8.10
2023-02-15T01:56:48.141Z,-8.08
2023-02-15T01:58:52.227Z,-8.10
2023-02-15T02:00:59.086Z,-8.11
2023-02-15T02:03:03.342Z,-8.11
2023-02-15T02:05:08.249Z,-8.09
2023-02-15T02:07:13.715Z,-8.09
2023-02-15T02:09:16.452Z,-8.10
2023-02-15T02:11:19.050Z,-8.12
2023-02-15T02:13:21.892Z,-8.15
2023-02-15T02:15:34.995Z,-8.15
2023-02-15T02:17:55.647Z,-8.13
2023-02-15T02:20:21.962Z,-8.12
2023-02-15T02:22:52.861Z,-8.10
2023-02-15T02:25:13.906Z,-8.09
2023-02-15T02:27:34.472Z,-8.07
2023-02-15T02:30:10.624Z,-8.06
2023-02-15T02:32:55.383Z,-8.07
2023-02-15T02:35:13.929Z,-8.08
2023-02-15T02:37:21.372Z,-8.11
2023-02-15T02:39:55.378Z,-8.12
2023-02-15T02:42:06.006Z,-8.11
2023-02-15T02:44:18.623Z,-8.12
2023-02-15T02:46:27.700Z,-8.12
2023-02-15T02:48:34.148Z,-8.12
2023-02-15T02:50:36.885Z,-8.13
2023-02-15T02:52:44.087Z,-8.14
2023-02-15T02:54:46.739Z,-8.14
2023-02-15T02:56:52.377Z,-8.16
2023-02-15T02:59:17.055Z,-8.17
2023-02-15T03:01:31.262Z,-8.17
2023-02-15T03:03:45.447Z,-8.17
2023-02-15T03:05:52.131Z,-8.16
2023-02-15T03:07:58.037Z,-8.17
2023-02-15T03:10:03.082Z,-8.19
2023-02-15T03:12:07.227Z,-8.16
2023-02-15T03:14:10.689Z,-8.16
2023-02-15T03:16:27.103Z,-8.15
2023-02-15T03:18:35.329Z,-8.14
2023-02-15T03:20:39.195Z,-8.18
2023-02-15T03:22:54.253Z,-8.19
2023-02-15T03:25:06.010Z,-8.22
2023-02-15T03:27:18.777Z,-8.29
2023-02-15T03:29:26.020Z,-8.33
2023-02-15T03:31:33.418Z,-8.38
2023-02-15T03:33:41.899Z,-8.39
2023-02-15T03:35:58.150Z,-8.35
2023-02-15T03:38:04.863Z,-8.33
2023-02-15T03:40:26.172Z,-8.32
2023-02-15T03:42:37.889Z,-8.32
2023-02-15T03:44:58.692Z,-8.33
2023-02-15T03:47:08.006Z,-8.35
2023-02-15T03:49:17.148Z,-8.36
2023-02-15T03:51:37.500Z,-8.39
2023-02-15T03:53:41.613Z,-8.42
2023-02-15T03:55:51.490Z,-8.46
2023-02-15T03:58:12.433Z,-8.50
2023-02-15T04:00:43.540Z,-8.56
2023-02-15T04:03:11.776Z,-8.60
2023-02-15T04:05:14.527Z,-8.62
2023-02-15T04:07:18.031Z,-8.68
2023-02-15T04:09:39.268Z,-8.69
2023-02-15T04:11:41.805Z,-8.73
2023-02-15T04:13:44.436Z,-8.76
2023-02-15T04:16:06.670Z,-8.78
2023-02-15T04:18:09.861Z,-8.80
2023-02-15T04:20:31.007Z,-8.79
2023-02-15T04:22:52.000Z,-8.78
2023-02-15T04:25:13.608Z,-8.76
2023-02-15T04:27:17.756Z,-8.71
2023-02-15T04:29:21.844Z,-8.71
2023-02-15T04:31:24.655Z,-8.73
2023-02-15T04:33:27.647Z,-8.70
2023-02-15T04:35:30.640Z,-8.70
2023-02-15T04:37:34.017Z,-8.66
2023-02-15T04:39:36.670Z,-8.62
2023-02-15T04:41:39.352Z,-8.61
2023-02-15T04:43:41.915Z,-8.60
2023-02-15T04:45:50.537Z,-8.56
2023-02-15T04:47:53.367Z,-8.52
2023-02-15T04:49:58.070Z,-8.51
2023-02-15T04:52:00.799Z,-8.49
2023-02-15T04:54:03.375Z,-8.46
2023-02-15T04:56:06.280Z,-8.42
2023-02-15T04:58:08.851Z,-8.39
2023-02-15T05:00:12.456Z,-8.36
2023-02-15T05:02:15.204Z,-8.33
2023-02-15T05:04:17.938Z,-8.28
2023-02-15T05:06:20.587Z,-8.29
2023-02-15T05:08:23.283Z,-8.29
2023-02-15T05:10:25.876Z,-8.31
2023-02-15T05:12:28.548Z,-8.36
2023-02-15T05:14:31.273Z,-8.30
2023-02-15T05:16:34.056Z,-8.31
2023-02-15T05:18:36.714Z,-8.27
2023-02-15T05:20:39.379Z,-8.26
2023-02-15T05:22:42.145Z,-8.27
2023-02-15T05:25:03.726Z,-8.30
2023-02-15T05:27:25.258Z,-8.31
2023-02-15T05:29:27.956Z,-8.36
2023-02-15T05:31:32.290Z,-8.38
2023-02-15T05:33:35.507Z,-8.42
2023-02-15T05:35:38.326Z,-8.43
2023-02-15T05:37:40.949Z,-8.46
2023-02-15T05:39:43.608Z,-8.46
2023-02-15T05:41:46.329Z,-8.43
2023-02-15T05:43:49.098Z,-8.36
2023-02-15T05:45:53.869Z,-8.35
2023-02-15T05:47:56.731Z,-8.30
2023-02-15T05:49:59.331Z,-8.30
2023-02-15T05:52:01.952Z,-8.28
2023-02-15T05:54:04.980Z,-8.25
2023-02-15T05:56:09.399Z,-8.21
2023-02-15T05:58:12.016Z,-8.20
2023-02-15T06:00:15.380Z,-8.15
2023-02-15T06:02:18.099Z,-8.11
2023-02-15T06:04:20.830Z,-8.09
2023-02-15T06:06:26.390Z,-8.07
2023-02-15T06:08:29.993Z,-8.06
2023-02-15T06:10:32.631Z,-8.06
2023-02-15T06:12:35.295Z,-8.07
2023-02-15T06:14:37.983Z,-8.11
2023-02-15T06:16:40.583Z,-8.13
2023-02-15T06:18:44.073Z,-8.17
2023-02-15T06:20:47.890Z,-8.18
2023-02-15T06:22:50.521Z,-8.16
2023-02-15T06:24:53.207Z,-8.16
2023-02-15T06:26:56.076Z,-8.15
2023-02-15T06:28:58.868Z,-8.16
2023-02-15T06:31:01.948Z,-8.12
2023-02-15T06:33:04.739Z,-8.12
2023-02-15T06:35:07.787Z,-8.09
2023-02-15T06:37:10.533Z,-8.06
2023-02-15T06:39:13.105Z,-8.05
2023-02-15T06:41:15.726Z,-8.00
2023-02-15T06:43:18.453Z,-7.95
2023-02-15T06:45:21.154Z,-7.91
2023-02-15T06:47:23.795Z,-7.86
2023-02-15T06:49:26.512Z,-7.80
2023-02-15T06:51:29.179Z,-7.77
2023-02-15T06:53:31.792Z,-7.71
2023-02-15T06:55:34.522Z,-7.62
2023-02-15T06:57:37.654Z,-7.55
2023-02-15T06:59:40.305Z,-7.49
2023-02-15T07:01:42.968Z,-7.40
2023-02-15T07:03:45.947Z,-7.36
2023-02-15T07:05:50.323Z,-7.29
2023-02-15T07:07:52.979Z,-7.24
2023-02-15T07:09:55.639Z,-7.15
2023-02-15T07:12:16.999Z,-7.08
2023-02-15T07:14:20.641Z,-7.05
2023-02-15T07:16:23.516Z,-7.04
2023-02-15T07:18:26.401Z,-7.06
2023-02-15T07:20:29.854Z,-7.04
2023-02-15T07:22:32.691Z,-7.02
2023-02-15T07:24:35.431Z,-7.01
2023-02-15T07:26:38.129Z,-6.97
2023-02-15T07:28:40.849Z,-6.89
2023-02-15T07:30:43.565Z,-6.87
2023-02-15T07:33:05.761Z,-6.83
2023-02-15T07:35:08.785Z,-6.83
2023-02-15T07:37:11.577Z,-6.81
2023-02-15T07:39:14.196Z,-6.77
2023-02-15T07:41:17.584Z,-6.71
2023-02-15T07:43:20.298Z,-6.69
2023-02-15T07:45:23.557Z,-6.68
2023-02-15T07:47:27.857Z,-6.71
2023-02-15T07:49:30.515Z,-6.68
2023-02-15T07:51:33.258Z,-6.62
2023-02-15T07:53:42.437Z,-6.57
2023-02-15T07:55:45.310Z,-6.55
2023-02-15T07:57:50.065Z,-6.51
2023-02-15T07:59:52.760Z,-6.52
2023-02-15T08:01:57.610Z,-6.44
2023-02-15T08:04:00.893Z,-6.44
2023-02-15T08:06:04.087Z,-6.42
2023-02-15T08:08:07.040Z,-6.37
2023-02-15T08:10:10.748Z,-6.33
2023-02-15T08:12:13.336Z,-6.33
2023-02-15T08:14:20.649Z,-6.24
2023-02-15T08:16:32.710Z,-6.14
2023-02-15T08:18:35.577Z,-6.05
2023-02-15T08:20:39.103Z,-5.97
2023-02-15T08:22:41.725Z,-5.91
2023-02-15T08:24:44.407Z,-5.84
2023-02-15T08:26:48.844Z,-5.78
2023-02-15T08:28:53.108Z,-5.68
2023-02-15T08:30:56.151Z,-5.60
2023-02-15T08:32:59.520Z,-5.58
2023-02-15T08:35:02.161Z,-5.53
2023-02-15T08:37:07.195Z,-5.46
2023-02-15T08:39:10.186Z,-5.39
2023-02-15T08:41:22.681Z,-5.33
2023-02-15T08:43:26.246Z,-5.16
2023-02-15T08:45:28.903Z,-5.04
2023-02-15T08:47:31.613Z,-4.90
2023-02-15T08:49:34.243Z,-4.78
2023-02-15T08:51:38.719Z,-4.58
2023-02-15T08:53:43.612Z,-4.47
2023-02-15T08:55:46.532Z,-4.39
2023-02-15T08:57:49.323Z,-4.30
2023-02-15T08:59:52.202Z,-4.21
2023-02-15T09:01:55.644Z,-4.16
2023-02-15T09:04:00.812Z,-4.11
2023-02-15T09:06:04.057Z,-4.14
2023-02-15T09:08:06.728Z,-4.19
2023-02-15T09:10:10.353Z,-4.18
2023-02-15T09:12:12.966Z,-4.22
2023-02-15T09:14:25.679Z,-4.26
2023-02-15T09:16:33.898Z,-4.36
2023-02-15T09:18:40.633Z,-4.41
2023-02-15T09:20:43.684Z,-4.49
2023-02-15T09:22:46.959Z,-4.57
2023-02-15T09:24:49.672Z,-4.61
2023-02-15T09:26:52.816Z,-4.63
2023-02-15T09:28:58.939Z,-4.72
2023-02-15T09:31:16.691Z,-4.91
2023-02-15T09:33:19.358Z,-4.98
2023-02-15T09:35:23.872Z,-5.03
2023-02-15T09:37:26.516Z,-5.10
2023-02-15T09:39:29.187Z,-4.96
2023-02-15T09:41:56.472Z,-4.84
2023-02-15T09:44:17.376Z,-4.75
2023-02-15T09:46:39.625Z,-4.63
2023-02-15T09:48:49.722Z,-4.65
2023-02-15T09:51:15.428Z,-4.70
2023-02-15T09:53:36.092Z,-4.76
2023-02-15T09:56:16.589Z,-4.85
2023-02-15T09:58:54.862Z,-4.86
2023-02-15T10:01:09.551Z,-4.80
2023-02-15T10:03:36.697Z,-4.78
2023-02-15T10:05:49.180Z,-4.77
2023-02-15T10:08:21.709Z,-4.78
2023-02-15T10:10:27.518Z,-4.75
2023-02-15T10:12:51.260Z,-4.72
2023-02-15T10:14:59.493Z,-4.60
2023-02-15T10:17:27.014Z,-4.53
2023-02-15T10:19:53.540Z,-4.40
2023-02-15T10:22:08.059Z,-4.27
2023-02-15T10:24:42.090Z,-4.25
2023-02-15T10:26:48.928Z,-4.35
2023-02-15T10:29:17.796Z,-4.51
2023-02-15T10:31:30.134Z,-4.57
2023-02-15T10:33:43.158Z,-4.63
2023-02-15T10:36:02.215Z,-4.67
2023-02-15T10:38:20.294Z,-4.60
2023-02-15T10:40:52.868Z,-4.61
2023-02-15T10:42:55.837Z,-4.63
2023-02-15T10:45:43.009Z,-4.72
2023-02-15T10:48:08.345Z,-4.82
2023-02-15T10:50:42.356Z,-4.86
2023-02-15T10:53:06.922Z,-4.76
2023-02-15T10:55:27.963Z,-4.64
2023-02-15T10:57:42.603Z,-4.58
2023-02-15T11:00:03.236Z,-4.49
2023-02-15T11:02:22.749Z,-4.28
2023-02-15T11:04:54.416Z,-3.98
2023-02-15T11:07:02.915Z,-3.79
2023-02-15T11:09:12.100Z,-3.72
2023-02-15T11:11:25.889Z,-3.77
2023-02-15T11:13:35.212Z,-3.76
2023-02-15T11:15:47.293Z,-3.84
2023-02-15T11:17:52.453Z,-3.99
2023-02-15T11:20:28.837Z,-4.06
2023-02-15T11:22:34.722Z,-4.18
2023-02-15T11:24:44.202Z,-4.29
2023-02-15T11:26:58.930Z,-4.43
2023-02-15T11:29:17.550Z,-4.52
2023-02-15T11:31:24.000Z,-4.68
2023-02-15T11:33:31.615Z,-4.80
2023-02-15T11:35:43.950Z,-4.90
2023-02-15T11:38:24.804Z,-4.96
2023-02-15T11:40:36.540Z,-4.99
2023-02-15T11:42:39.705Z,-5.07
2023-02-15T11:45:01.108Z,-5.14
2023-02-15T11:47:12.720Z,-5.23
2023-02-15T11:49:48.144Z,-5.24
2023-02-15T11:51:52.114Z,-5.22
2023-02-15T11:53:54.853Z,-5.23
2023-02-15T11:55:57.692Z,-5.27
2023-02-15T11:58:32.527Z,-5.34
2023-02-15T12:00:46.852Z,-5.40
2023-02-15T12:02:54.631Z,-5.42
2023-02-15T12:05:04.024Z,-5.43
2023-02-15T12:07:23.770Z,-5.52
2023-02-15T12:09:50.419Z,-5.52
2023-02-15T12:11:53.659Z,-5.63
2023-02-15T12:14:03.704Z,-5.68
2023-02-15T12:16:13.344Z,-5.70
2023-02-15T12:18:22.893Z,-5.81
2023-02-15T12:20:29.004Z,-5.89
2023-02-15T12:22:33.182Z,-5.94
2023-02-15T12:27:16.304Z,-6.03
2023-02-15T12:29:24.604Z,-6.08
2023-02-15T12:31:33.177Z,-6.11
2023-02-15T12:33:42.199Z,-6.13
2023-02-15T12:38:11.532Z,-6.17
2023-02-15T12:40:28.780Z,-6.17
2023-02-15T12:42:44.033Z,-6.19
2023-02-15T12:45:20.433Z,-6.24
2023-02-15T12:47:28.900Z,-6.33
2023-02-15T12:49:38.912Z,-6.39
2023-02-15T12:51:47.420Z,-6.36
2023-02-15T12:53:50.834Z,-6.45
2023-02-15T12:55:57.887Z,-6.45
2023-02-15T12:58:08.286Z,-6.41
2023-02-15T13:00:19.801Z,-6.47
2023-02-15T13:02:26.797Z,-6.49
2023-02-15T13:04:30.738Z,-6.47
2023-02-15T13:06:38.139Z,-6.46
2023-02-15T13:08:51.161Z,-6.52
2023-02-15T13:10:55.422Z,-6.60
2023-02-15T13:12:59.050Z,-6.61
2023-02-15T13:15:04.344Z,-6.71
2023-02-15T13:17:08.911Z,-6.81
2023-02-15T13:19:24.544Z,-6.87
2023-02-15T13:21:33.751Z,-6.93
2023-02-15T13:23:37.456Z,-6.98
2023-02-15T13:25:52.174Z,-7.04
2023-02-15T13:28:10.688Z,-7.09
2023-02-15T13:30:31.144Z,-7.21
2023-02-15T13:32:39.262Z,-7.21
2023-02-15T13:34:42.247Z,-7.20
2023-02-15T13:36:45.608Z,-7.20
2023-02-15T13:38:54.364Z,-7.26
2023-02-15T13:41:04.605Z,-7.29
2023-02-15T13:43:36.443Z,-7.37
2023-02-15T13:46:04.188Z,-7.42
2023-02-15T13:48:50.825Z,-7.47
2023-02-15T13:51:06.951Z,-7.51
2023-02-15T13:53:26.055Z,-7.53
2023-02-15T13:55:38.881Z,-7.57
2023-02-15T13:57:44.433Z,-7.60
2023-02-15T14:00:05.481Z,-7.61
2023-02-15T14:02:45.686Z,-7.63
2023-02-15T14:05:23.591Z,-7.69
2023-02-15T14:07:57.748Z,-7.71
2023-02-15T14:10:34.805Z,-7.71
2023-02-15T14:13:05.097Z,-7.72
2023-02-15T14:15:16.777Z,-7.74
2023-02-15T14:17:56.386Z,-7.80
2023-02-15T14:20:09.917Z,-7.76
2023-02-15T14:22:33.214Z,-7.77
2023-02-15T14:24:49.167Z,-7.81
2023-02-15T14:27:02.695Z,-7.77
2023-02-15T14:29:26.778Z,-7.80
2023-02-15T14:31:35.584Z,-7.80
2023-02-15T14:33:38.570Z,-7.80
2023-02-15T14:35:41.990Z,-7.80
2023-02-15T14:37:58.046Z,-7.77
2023-02-15T14:40:43.545Z,-7.76
2023-02-15T14:43:05.868Z,-7.79
2023-02-15T14:45:44.844Z,-7.81
2023-02-15T14:48:02.035Z,-7.79
2023-02-15T14:50:32.490Z,-7.78
2023-02-15T14:53:13.549Z,-7.78
2023-02-15T14:55:37.632Z,-7.81
2023-02-15T14:57:40.307Z,-7.79
2023-02-15T15:00:00.006Z,-7.78
2023-02-15T15:02:09.404Z,-7.81
2023-02-15T15:04:25.031Z,-7.81
2023-02-15T15:06:31.704Z,-7.82
2023-02-15T15:08:42.501Z,-7.81
2023-02-15T15:10:47.658Z,-7.82
2023-02-15T15:12:52.388Z,-7.78
2023-02-15T15:14:55.349Z,-7.81
2023-02-15T15:16:58.824Z,-7.83
2023-02-15T15:19:04.221Z,-7.80
2023-02-15T15:21:08.410Z,-7.79
2023-02-15T15:23:17.022Z,-7.77
2023-02-15T15:25:43.421Z,-7.76
2023-02-15T15:27:55.792Z,-7.78
2023-02-15T15:29:58.525Z,-7.73
2023-02-15T15:32:03.318Z,-7.72
2023-02-15T15:34:25.064Z,-7.71
2023-02-15T15:36:37.911Z,-7.74
2023-02-15T15:39:16.149Z,-7.72
2023-02-15T15:41:36.914Z,-7.73
2023-02-15T15:43:54.588Z,-7.71
2023-02-15T15:46:11.486Z,-7.71
2023-02-15T15:48:34.910Z,-7.69
2023-02-15T15:50:41.808Z,-7.69
2023-02-15T15:52:49.931Z,-7.70
2023-02-15T15:54:58.200Z,-7.66
2023-02-15T15:57:05.149Z,-7.64
2023-02-15T15:59:15.644Z,-7.66
2023-02-15T16:01:27.027Z,-7.69
2023-02-15T16:03:30.492Z,-7.69
2023-02-15T16:05:40.048Z,-7.68
2023-02-15T16:07:42.856Z,-7.67
2023-02-15T16:10:20.577Z,-7.68
2023-02-15T16:12:24.615Z,-7.69
2023-02-15T16:14:32.166Z,-7.69
2023-02-15T16:16:34.831Z,-7.69
2023-02-15T16:18:40.301Z,-7.68
2023-02-15T16:20:50.739Z,-7.68
2023-02-15T16:23:05.274Z,-7.71
2023-02-15T16:25:26.663Z,-7.73
2023-02-15T16:27:48.460Z,-7.71
2023-02-15T16:29:51.504Z,-7.71
2023-02-15T16:32:07.008Z,-7.68
2023-02-15T16:34:18.981Z,-7.69
2023-02-15T16:36:29.658Z,-7.65
2023-02-15T16:38:44.860Z,-7.64
2023-02-15T16:40:58.410Z,-7.65
2023-02-15T16:43:08.860Z,-7.60
2023-02-15T16:45:19.565Z,-7.57
2023-02-15T16:47:31.510Z,-7.57
2023-02-15T16:49:35.413Z,-7.56
2023-02-15T16:51:38.373Z,-7.55
2023-02-15T16:53:41.077Z,-7.53
2023-02-15T16:55:44.533Z,-7.53
2023-02-15T16:57:47.292Z,-7.53
2023-02-15T16:59:53.225Z,-7.52
2023-02-15T17:01:55.927Z,-7.49
2023-02-15T17:04:23.249Z,-7.48
2023-02-15T17:06:27.960Z,-7.47
2023-02-15T17:08:43.268Z,-7.48
2023-02-15T17:11:03.340Z,-7.45
2023-02-15T17:13:17.146Z,-7.45
2023-02-15T17:15:38.530Z,-7.44
2023-02-15T17:17:43.435Z,-7.44
2023-02-15T17:19:54.678Z,-7.47
2023-02-15T17:22:08.087Z,-7.48
2023-02-15T17:24:19.305Z,-7.53
2023-02-15T17:26:27.954Z,-7.53
2023-02-15T17:28:33.546Z,-7.54
2023-02-15T17:30:40.027Z,-7.57
2023-02-15T17:32:59.190Z,-7.64
2023-02-15T17:35:18.523Z,-7.68
2023-02-15T17:37:32.443Z,-7.70
2023-02-15T17:39:35.140Z,-7.68
2023-02-15T17:41:40.859Z,-7.67
2023-02-15T17:43:43.691Z,-7.70
2023-02-15T17:45:51.143Z,-7.70
2023-02-15T17:47:54.152Z,-7.71
2023-02-15T17:49:58.470Z,-7.77
2023-02-15T17:52:04.528Z,-7.80
2023-02-15T17:54:28.248Z,-7.84
2023-02-15T17:56:31.043Z,-7.88
2023-02-15T17:58:33.663Z,-7.92
2023-02-15T18:00:59.551Z,-8.02
2023-02-15T18:03:20.883Z,-7.99
2023-02-15T18:05:42.267Z,-8.01
2023-02-15T18:08:04.588Z,-8.04
2023-02-15T18:10:37.147Z,-8.03
2023-02-15T18:12:40.194Z,-8.13
2023-02-15T18:14:43.063Z,-8.15
2023-02-15T18:16:46.519Z,-8.19
2023-02-15T18:18:49.406Z,-8.21
2023-02-15T18:20:52.069Z,-8.23
2023-02-15T18:22:55.138Z,-8.26
2023-02-15T18:24:58.472Z,-8.30
2023-02-15T18:27:01.217Z,-8.32
2023-02-15T18:29:04.190Z,-8.36
2023-02-15T18:31:07.032Z,-8.36
2023-02-15T18:33:36.574Z,-8.35
2023-02-15T18:35:39.232Z,-8.41
2023-02-15T18:37:42.106Z,-8.43
2023-02-15T18:39:50.068Z,-8.45
2023-02-15T18:41:53.189Z,-8.46
2023-02-15T18:43:57.143Z,-8.47
2023-02-15T18:45:59.902Z,-8.52
2023-02-15T18:48:02.680Z,-8.56
2023-02-15T18:50:07.970Z,-8.53
2023-02-15T18:52:17.299Z,-8.55
2023-02-15T18:54:22.942Z,-8.54
2023-02-15T18:56:25.604Z,-8.57
2023-02-15T18:58:29.032Z,-8.56
2023-02-15T19:00:34.237Z,-8.51
2023-02-15T19:02:37.051Z,-8.52
2023-02-15T19:04:39.825Z,-8.47
2023-02-15T19:06:46.870Z,-8.45
2023-02-15T19:08:52.432Z,-8.50
2023-02-15T19:10:55.423Z,-8.44
2023-02-15T19:12:58.635Z,-8.44
2023-02-15T19:15:02.322Z,-8.44
2023-02-15T19:17:17.162Z,-8.43
2023-02-15T19:19:20.153Z,-8.41
2023-02-15T19:21:24.529Z,-8.37
2023-02-15T19:23:27.202Z,-8.35
2023-02-15T19:25:32.578Z,-8.32
2023-02-15T19:27:36.219Z,-8.34
2023-02-15T19:29:39.454Z,-8.34
2023-02-15T19:31:45.546Z,-8.33
2023-02-15T19:33:49.211Z,-8.31
2023-02-15T19:35:57.652Z,-8.33
2023-02-15T19:38:03.485Z,-8.30
2023-02-15T19:40:07.871Z,-8.37
2023-02-15T19:42:15.606Z,-8.30
2023-02-15T19:44:19.354Z,-8.27
2023-02-15T19:46:24.087Z,-8.25
2023-02-15T19:48:26.901Z,-8.27
2023-02-15T19:50:32.409Z,-8.27
2023-02-15T19:52:35.020Z,-8.25
2023-02-15T19:54:37.719Z,-8.28
2023-02-15T19:56:40.430Z,-8.29
2023-02-15T19:58:42.996Z,-8.31
2023-02-15T20:00:47.219Z,-8.34
2023-02-15T20:02:50.085Z,-8.37
2023-02-15T20:04:52.865Z,-8.41
2023-02-15T20:06:58.203Z,-8.48
2023-02-15T20:09:00.845Z,-8.46
2023-02-15T20:11:03.753Z,-8.46
2023-02-15T20:13:06.719Z,-8.51
2023-02-15T20:15:19.006Z,-8.54
2023-02-15T20:17:21.669Z,-8.61
2023-02-15T20:19:24.732Z,-8.66
2023-02-15T20:21:27.962Z,-8.73
2023-02-15T20:23:35.846Z,-8.78
2023-02-15T20:25:38.695Z,-8.80
2023-02-15T20:27:44.073Z,-8.82
2023-02-15T20:29:47.171Z,-8.85
2023-02-15T20:31:50.133Z,-8.87
2023-02-15T20:33:53.476Z,-8.88
2023-02-15T20:35:56.517Z,-8.90
2023-02-15T20:38:01.223Z,-8.90
2023-02-15T20:40:06.279Z,-8.89
2023-02-15T20:42:13.928Z,-8.91
2023-02-15T20:44:29.235Z,-8.93
2023-02-15T20:46:32.260Z,-8.96
2023-02-15T20:48:35.011Z,-8.98
2023-02-15T20:50:38.560Z,-9.01
2023-02-15T20:52:41.320Z,-9.01
2023-02-15T20:54:44.036Z,-9.04
2023-02-15T20:56:47.958Z,-9.09
2023-02-15T20:58:51.270Z,-9.11
2023-02-15T21:00:56.285Z,-9.14
2023-02-15T21:03:00.681Z,-9.20
2023-02-15T21:05:03.637Z,-9.29
2023-02-15T21:07:06.685Z,-9.36
2023-02-15T21:09:13.852Z,-9.46
2023-02-15T21:11:23.692Z,-9.53
2023-02-15T21:13:30.908Z,-9.60
2023-02-15T21:15:36.287Z,-9.67
2023-02-15T21:17:38.958Z,-9.70
2023-02-15T21:19:42.226Z,-9.74
2023-02-15T21:21:46.170Z,-9.74
2023-02-15T21:23:49.165Z,-9.71
2023-02-15T21:25:51.899Z,-9.67
2023-02-15T21:27:54.938Z,-9.65
2023-02-15T21:29:57.713Z,-9.58
2023-02-15T21:32:01.545Z,-9.52
2023-02-15T21:34:04.381Z,-9.47
2023-02-15T21:36:15.382Z,-9.43
2023-02-15T21:38:21.781Z,-9.40
2023-02-15T21:40:29.297Z,-9.38
2023-02-15T21:42:50.628Z,-9.33
2023-02-15T21:45:12.007Z,-9.27
2023-02-15T21:47:40.338Z,-9.25
2023-02-15T21:49:43.050Z,-9.23
2023-02-15T21:52:04.808Z,-9.20
2023-02-15T21:54:13.110Z,-9.17
2023-02-15T21:56:20.729Z,-9.18
2023-02-15T21:58:26.518Z,-9.13
2023-02-15T22:00:30.885Z,-9.10
2023-02-15T22:02:33.704Z,-9.08
2023-02-15T22:04:36.452Z,-9.05
2023-02-15T22:06:39.075Z,-9.05
2023-02-15T22:08:42.093Z,-9.05
2023-02-15T22:10:45.668Z,-9.04
2023-02-15T22:12:48.329Z,-9.01
2023-02-15T22:14:53.901Z,-9.01
2023-02-15T22:16:56.523Z,-9.02
2023-02-15T22:18:59.242Z,-9.00
2023-02-15T22:21:03.121Z,-8.99
2023-02-15T22:23:06.229Z,-8.97
2023-02-15T22:25:10.546Z,-8.95
2023-02-15T22:27:27.954Z,-8.93
2023-02-15T22:29:30.864Z,-8.95
2023-02-15T22:31:33.880Z,-8.95
2023-02-15T22:33:36.660Z,-8.94
2023-02-15T22:35:39.285Z,-8.94
2023-02-15T22:37:41.900Z,-8.91
2023-02-15T22:39:44.582Z,-8.90
2023-02-15T22:41:47.160Z,-8.91
2023-02-15T22:43:50.896Z,-8.92
2023-02-15T22:45:57.830Z,-8.90
2023-02-15T22:48:02.576Z,-8.88
2023-02-15T22:50:19.089Z,-8.92
2023-02-15T22:52:22.677Z,-8.91
2023-02-15T22:54:25.364Z,-8.92
2023-02-15T22:56:45.313Z,-8.91
2023-02-15T22:58:50.653Z,-8.91
2023-02-15T23:00:53.513Z,-8.94
2023-02-15T23:02:56.274Z,-8.93
2023-02-15T23:04:59.038Z,-8.93
2023-02-15T23:07:01.934Z,-8.93
2023-02-15T23:09:04.610Z,-8.96
2023-02-15T23:11:10.802Z,-8.90
2023-02-15T23:13:27.226Z,-8.90
2023-02-15T23:15:29.950Z,-8.88
2023-02-15T23:17:32.621Z,-8.87
2023-02-15T23:19:35.274Z,-8.90
2023-02-15T23:21:37.911Z,-8.89
2023-02-15T23:23:42.765Z,-8.89
2023-02-15T23:25:45.423Z,-8.91
2023-02-15T23:27:57.143Z,-8.91
2023-02-15T23:29:59.912Z,-8.91
2023-02-15T23:32:03.093Z,-8.90
2023-02-15T23:34:20.913Z,-8.92
2023-02-15T23:36:35.568Z,-8.95
2023-02-15T23:38:38.251Z,-8.95
2023-02-15T23:40:59.783Z,-8.97
2023-02-15T23:43:02.647Z,-9.01
2023-02-15T23:45:14.526Z,-9.02
2023-02-15T23:47:20.306Z,-9.02
2023-02-15T23:49:23.658Z,-9.01
2023-02-15T23:51:31.688Z,-9.04
2023-02-15T23:53:34.494Z,-9.04
2023-02-15T23:55:43.548Z,-9.09
2023-02-15T23:57:47.027Z,-9.09
2023-02-15T23:59:49.712Z,-9.10
